Terminal Aerodrome Forecast
Issued by NWS

Home | Current Version | Previous Version | Text Only | Print | Product List | Glossary On
Versions: 1 2 3 4 5 6 7 8 9 10 11 12 13 14 15 16 17 18 19
005
FTUS43 KLSX 231822 AAA
TAFSUS
TAF AMD
KSUS 231822Z 2318/2418 34011G19KT P6SM BKN035
     FM232200 34013G21KT P6SM SCT050
     FM240000 34009KT P6SM SCT250
     FM240700 30005KT P6SM SKC
     FM241700 31009KT P6SM SCT150=

USA.gov is the U.S. government's official web portal to all federal, state and local government web resources and services.